createdAt,value
2023-01-17T00:00:41.680Z,97851.88
2023-01-17T00:11:03.082Z,97844.91
2023-01-17T00:21:43.227Z,97842.91
2023-01-17T00:32:04.679Z,97868.31
2023-01-17T00:42:25.984Z,97869.53
2023-01-17T00:53:06.040Z,97873.75
2023-01-17T01:03:46.053Z,97888.38
2023-01-17T01:14:26.729Z,97902.41
2023-01-17T01:25:06.845Z,97913.97
2023-01-17T01:35:28.572Z,97913.16
2023-01-17T01:45:56.135Z,97910.41
2023-01-17T01:56:19.900Z,97921.84
2023-01-17T02:06:49.316Z,97933.56
2023-01-17T02:17:26.455Z,97931.72
2023-01-17T02:28:04.981Z,97957.34
2023-01-17T02:38:31.602Z,97961.88
2023-01-17T02:48:54.152Z,97995.34
2023-01-17T02:59:40.238Z,98006.66
2023-01-17T03:10:03.455Z,98039.00
2023-01-17T03:20:24.808Z,98055.63
2023-01-17T03:30:46.278Z,98079.06
2023-01-17T03:41:08.197Z,98106.31
2023-01-17T03:51:29.585Z,98142.81
2023-01-17T04:01:51.067Z,98161.69
2023-01-17T04:12:12.541Z,98180.53
2023-01-17T04:22:33.906Z,98201.97
2023-01-17T04:32:55.681Z,98218.09
2023-01-17T04:43:17.414Z,98229.56
2023-01-17T04:53:38.776Z,98242.13
2023-01-17T05:04:00.173Z,98248.69
2023-01-17T05:14:27.701Z,98275.38
2023-01-17T05:24:49.072Z,98322.66
2023-01-17T05:35:10.479Z,98370.22
2023-01-17T05:45:33.196Z,98381.44
2023-01-17T05:55:54.584Z,98402.13
2023-01-17T06:06:16.056Z,98404.59
2023-01-17T06:16:37.387Z,98439.31
2023-01-17T06:26:58.740Z,98439.91
2023-01-17T06:37:20.183Z,98461.78
2023-01-17T06:47:42.010Z,98472.56
2023-01-17T06:58:03.445Z,98496.56
2023-01-17T07:08:24.813Z,98495.72
2023-01-17T07:18:46.160Z,98507.78
2023-01-17T07:29:07.604Z,98538.13
2023-01-17T07:39:28.950Z,98543.69
2023-01-17T07:49:50.332Z,98555.97
2023-01-17T08:00:11.947Z,98561.50
2023-01-17T08:10:33.383Z,98569.63
2023-01-17T08:20:54.798Z,98585.00
2023-01-17T08:31:17.600Z,98594.72
2023-01-17T08:41:39.308Z,98618.34
2023-01-17T08:52:00.728Z,98627.59
2023-01-17T09:02:24.113Z,98642.72
2023-01-17T09:12:45.509Z,98647.44
2023-01-17T09:23:06.861Z,98657.53
2023-01-17T09:33:28.221Z,98681.94
2023-01-17T09:43:52.225Z,98692.75
2023-01-17T09:54:22.089Z,98694.00
2023-01-17T10:05:04.967Z,98695.56
2023-01-17T10:15:39.096Z,98700.91
2023-01-17T10:26:02.264Z,98719.53
2023-01-17T10:36:24.867Z,98720.88
2023-01-17T10:46:58.403Z,98710.31
2023-01-17T10:57:21.318Z,98715.84
2023-01-17T11:07:56.279Z,98720.72
2023-01-17T11:18:19.890Z,98740.75
2023-01-17T11:28:41.466Z,98724.91
2023-01-17T11:39:02.971Z,98738.25
2023-01-17T11:49:25.302Z,98741.34
2023-01-17T11:59:47.727Z,98726.91
2023-01-17T12:10:24.422Z,98735.63
2023-01-17T12:21:00.023Z,98733.56
2023-01-17T12:31:21.587Z,98733.94
2023-01-17T12:41:49.245Z,98736.56
2023-01-17T12:52:14.077Z,98732.94
2023-01-17T13:02:38.139Z,98741.97
2023-01-17T13:13:03.294Z,98747.88
2023-01-17T13:23:39.074Z,98742.75
2023-01-17T13:34:17.442Z,98753.72
2023-01-17T13:44:38.840Z,98771.25
2023-01-17T13:55:04.737Z,98766.50
2023-01-17T14:05:38.253Z,98775.63
2023-01-17T14:16:00.312Z,98782.03
2023-01-17T14:26:21.644Z,98795.53
2023-01-17T14:36:42.996Z,98791.41
2023-01-17T14:47:04.901Z,98803.44
2023-01-17T14:57:28.426Z,98806.78
2023-01-17T15:07:53.023Z,98820.44
2023-01-17T15:18:14.401Z,98823.38
2023-01-17T15:28:35.906Z,98823.88
2023-01-17T15:39:00.199Z,98833.03
2023-01-17T15:49:22.781Z,98836.00
2023-01-17T15:59:45.865Z,98844.03
2023-01-17T16:10:14.380Z,98858.88
2023-01-17T16:20:41.368Z,98860.44
2023-01-17T16:31:02.919Z,98865.81
2023-01-17T16:41:24.412Z,98876.38
2023-01-17T16:51:46.371Z,98884.41
2023-01-17T17:02:09.708Z,98885.72
2023-01-17T17:12:32.003Z,98902.28
2023-01-17T17:22:53.404Z,98917.97
2023-01-17T17:33:15.177Z,98920.81
2023-01-17T17:43:37.752Z,98938.00
2023-01-17T17:54:00.945Z,98949.19
2023-01-17T18:04:22.471Z,98946.94
2023-01-17T18:14:43.870Z,98961.63
2023-01-17T18:25:07.556Z,98989.81
2023-01-17T18:35:28.950Z,98996.97
2023-01-17T18:45:53.623Z,99007.44
2023-01-17T18:56:16.236Z,99018.59
2023-01-17T19:06:38.843Z,99019.59
2023-01-17T19:17:01.630Z,99035.94
2023-01-17T19:27:23.104Z,99052.16
2023-01-17T19:37:45.762Z,99047.88
2023-01-17T19:48:07.130Z,99058.25
2023-01-17T19:58:28.483Z,99066.94
2023-01-17T20:08:50.405Z,99073.81
2023-01-17T20:19:11.777Z,99068.88
2023-01-17T20:29:33.875Z,99064.81
2023-01-17T20:39:55.523Z,99072.63
2023-01-17T20:50:16.946Z,99066.75
2023-01-17T21:00:40.314Z,99063.41
2023-01-17T21:11:02.109Z,99070.06
2023-01-17T21:21:25.320Z,99070.13
2023-01-17T21:31:46.754Z,99070.34
2023-01-17T21:42:08.391Z,99077.31
2023-01-17T21:52:31.581Z,99090.16
2023-01-17T22:02:53.080Z,99099.66
2023-01-17T22:13:15.335Z,99104.78
2023-01-17T22:23:36.699Z,99119.25
2023-01-17T22:34:03.288Z,99138.03
2023-01-17T22:44:24.638Z,99141.53
2023-01-17T22:54:45.984Z,99139.91
2023-01-17T23:05:09.648Z,99152.75
2023-01-17T23:15:49.848Z,99148.72
2023-01-17T23:26:11.343Z,99148.00
2023-01-17T23:36:32.684Z,99163.41
2023-01-17T23:46:54.034Z,99163.47
2023-01-17T23:57:15.423Z,99163.47
